Time;durP1;ratioP1;P1;durP2;ratioP2;P2;SDS_P1;SDS_P2;PMS_P1;PMS_P2;Temp;Humidity;BMP_temperature;BMP_pressure;BME280_temperature;BME280_humidity;BME280_pressure;Samples;Min_cycle;Max_cycle;Signal;HPM_P1;HPM_P2
2023/01/03 00:01:20;;;;;;;2.00;1.02;;;;;;;7.68;100.00;99863.03;5015117;28;20076;-74
2023/01/03 00:03:45;;;;;;;1.70;1.10;;;;;;;7.69;100.00;99870.91;4992886;28;20028;-74
2023/01/03 00:06:16;;;;;;;2.40;1.30;;;;;;;7.68;100.00;99871.94;5012272;28;20022;-74
2023/01/03 00:08:42;;;;;;;1.95;1.30;;;;;;;7.59;100.00;99856.72;4995897;28;20026;-74
2023/01/03 00:11:15;;;;;;;3.13;1.60;;;;;;;7.71;100.00;99876.16;5011185;28;20060;-74
2023/01/03 00:13:41;;;;;;;2.25;1.13;;;;;;;7.73;100.00;99882.25;4994457;28;20284;-74
2023/01/03 00:16:18;;;;;;;2.78;1.25;;;;;;;7.64;100.00;99884.00;4993426;28;20109;-74
2023/01/03 00:18:44;;;;;;;1.52;1.10;;;;;;;7.58;100.00;99876.56;5011079;28;20025;-74
2023/01/03 00:21:09;;;;;;;2.08;1.00;;;;;;;7.61;100.00;99868.19;4993057;28;20053;-77
2023/01/03 00:23:35;;;;;;;3.45;1.15;;;;;;;7.58;100.00;99873.88;4993765;28;20037;-73
2023/01/03 00:26:11;;;;;;;2.45;1.02;;;;;;;7.69;100.00;99889.78;5011640;28;20026;-73
2023/01/03 00:28:36;;;;;;;2.15;1.27;;;;;;;7.64;100.00;99880.47;4992036;28;20026;-74
2023/01/03 00:31:09;;;;;;;2.35;1.10;;;;;;;7.56;100.00;99856.19;5011714;28;20076;-74
2023/01/03 00:33:37;;;;;;;2.10;1.15;;;;;;;7.74;100.00;99883.09;5012244;28;20113;-74
2023/01/03 00:36:07;;;;;;;1.40;0.95;;;;;;;7.80;100.00;99875.19;5012435;28;20022;-75
2023/01/03 00:38:34;;;;;;;1.75;0.75;;;;;;;7.81;100.00;99882.28;5006319;28;20479;-78
2023/01/03 00:41:10;;;;;;;2.17;1.08;;;;;;;7.72;100.00;99871.63;5010575;28;20041;-74
2023/01/03 00:43:36;;;;;;;1.77;0.93;;;;;;;7.78;100.00;99861.06;4993894;28;20053;-74
2023/01/03 00:46:03;;;;;;;2.88;0.90;;;;;;;7.82;100.00;99873.19;5011661;28;20052;-75
2023/01/03 00:48:28;;;;;;;1.20;1.05;;;;;;;7.77;100.00;99874.69;5010072;28;20065;-74
2023/01/03 00:50:54;;;;;;;2.28;1.10;;;;;;;7.79;100.00;99891.53;4992867;28;20029;-76
2023/01/03 00:53:20;;;;;;;1.95;0.75;;;;;;;7.82;100.00;99891.22;4994522;28;20025;-74
2023/01/03 00:55:46;;;;;;;2.03;0.95;;;;;;;7.75;100.00;99877.50;5011657;28;20029;-74
2023/01/03 00:58:11;;;;;;;2.72;0.80;;;;;;;7.79;100.00;99887.00;5011173;28;20387;-74
2023/01/03 01:00:37;;;;;;;2.05;1.00;;;;;;;7.76;100.00;99868.44;5012466;28;20031;-76
2023/01/03 01:03:02;;;;;;;2.20;1.00;;;;;;;7.79;100.00;99878.91;4991516;28;20049;-74
2023/01/03 01:05:29;;;;;;;1.83;0.70;;;;;;;7.88;100.00;99882.47;4995044;28;20038;-74
2023/01/03 01:07:55;;;;;;;2.60;0.80;;;;;;;7.82;100.00;99883.13;5008770;28;20103;-73
2023/01/03 01:10:20;;;;;;;0.75;0.60;;;;;;;7.82;100.00;99873.19;5008217;28;20441;-74
2023/01/03 01:12:46;;;;;;;1.05;0.80;;;;;;;7.79;100.00;99864.59;4993833;28;20109;-74
2023/01/03 01:15:12;;;;;;;3.08;0.77;;;;;;;7.79;100.00;99883.44;4992464;28;20121;-74
2023/01/03 01:17:38;;;;;;;2.28;0.75;;;;;;;7.74;100.00;99896.56;5009287;28;20487;-74
2023/01/03 01:20:05;;;;;;;1.60;0.80;;;;;;;7.64;100.00;99894.78;5011026;28;20018;-74
2023/01/03 01:22:31;;;;;;;0.98;0.63;;;;;;;7.65;100.00;99885.72;5010079;28;20022;-74
2023/01/03 01:24:56;;;;;;;1.13;0.60;;;;;;;7.52;100.00;99866.44;4995929;28;20030;-74
2023/01/03 01:27:22;;;;;;;1.42;0.75;;;;;;;7.50;100.00;99875.69;5010826;28;20037;-77
2023/01/03 01:29:47;;;;;;;1.30;0.80;;;;;;;7.61;100.00;99889.72;5010658;28;20175;-74
2023/01/03 01:32:12;;;;;;;3.85;0.77;;;;;;;7.71;100.00;99903.09;4993428;28;20026;-74
2023/01/03 01:34:38;;;;;;;1.42;0.90;;;;;;;7.50;100.00;99895.38;5009759;28;20520;-75
2023/01/03 01:37:03;;;;;;;1.02;0.70;;;;;;;7.39;100.00;99877.63;4990639;28;20048;-75
2023/01/03 01:39:29;;;;;;;2.20;0.73;;;;;;;7.38;100.00;99886.69;5003153;28;20033;-74
2023/01/03 01:44:56;;;;;;;2.25;0.80;;;;;;;7.42;100.00;99919.53;5014870;28;20396;-75
2023/01/03 01:47:31;;;;;;;2.47;1.05;;;;;;;7.31;100.00;99909.00;4993777;28;20022;-74
2023/01/03 01:50:03;;;;;;;0.85;0.65;;;;;;;7.30;100.00;99932.38;4996592;28;20022;-75
2023/01/03 01:52:31;;;;;;;2.40;1.10;;;;;;;7.10;100.00;99925.47;4996757;28;20116;-75
2023/01/03 01:54:58;;;;;;;3.05;0.70;;;;;;;7.01;100.00;99920.00;4997186;28;20075;-75
2023/01/03 01:57:24;;;;;;;1.23;0.80;;;;;;;6.96;100.00;99941.13;5014814;28;20021;-75
2023/01/03 01:59:50;;;;;;;1.60;0.73;;;;;;;6.93;100.00;99940.59;4995800;28;20026;-75
2023/01/03 02:02:19;;;;;;;3.15;0.98;;;;;;;6.99;100.00;99956.13;5014040;28;20423;-74
2023/01/03 02:04:47;;;;;;;3.42;0.75;;;;;;;7.02;100.00;99942.38;5013200;28;20075;-75
2023/01/03 02:07:13;;;;;;;2.10;0.90;;;;;;;6.92;100.00;99933.53;4996161;28;20044;-74
2023/01/03 02:09:38;;;;;;;2.33;0.80;;;;;;;6.81;100.00;99918.44;5011663;28;20105;-75
2023/01/03 02:15:17;;;;;;;1.30;0.80;;;;;;;7.03;100.00;99942.22;5014480;28;20036;-75
2023/01/03 02:18:11;;;;;;;1.63;0.88;;;;;;;6.96;100.00;99935.75;4995222;28;20607;-74
2023/01/03 02:21:19;;;;;;;1.58;1.00;;;;;;;6.89;100.00;99939.19;4992839;28;20559;-74
2023/01/03 02:23:54;;;;;;;1.95;0.65;;;;;;;6.80;100.00;99932.91;4998594;28;20499;-74
2023/01/03 02:26:44;;;;;;;1.63;0.93;;;;;;;6.70;100.00;99943.72;5017974;28;20025;-75
2023/01/03 02:29:47;;;;;;;1.85;1.00;;;;;;;6.66;100.00;99953.09;5012042;28;20030;-75
2023/01/03 02:32:22;;;;;;;1.95;1.00;;;;;;;6.66;100.00;99945.03;5012597;28;20026;-75
2023/01/03 02:35:14;;;;;;;2.28;1.00;;;;;;;6.63;100.00;99939.06;5013012;28;20048;-75
2023/01/03 02:37:43;;;;;;;4.57;1.30;;;;;;;6.63;100.00;99933.69;4991637;28;20014;-75
2023/01/03 02:40:14;;;;;;;2.15;1.17;;;;;;;6.69;100.00;99936.66;4995363;28;20511;-78
2023/01/03 02:42:57;;;;;;;4.55;1.08;;;;;;;6.65;100.00;99946.00;5015312;28;20140;-75
2023/01/03 02:45:34;;;;;;;3.35;1.13;;;;;;;6.60;100.00;99942.91;5008725;28;20029;-75
2023/01/03 02:48:10;;;;;;;2.53;1.33;;;;;;;6.46;100.00;99932.66;5010846;28;20388;-75
2023/01/03 02:50:44;;;;;;;1.63;0.90;;;;;;;6.30;100.00;99933.31;4995367;28;20457;-75
2023/01/03 02:53:13;;;;;;;1.88;1.17;;;;;;;6.25;100.00;99933.75;5012224;28;20026;-75
2023/01/03 02:55:40;;;;;;;1.53;0.90;;;;;;;6.28;100.00;99930.75;4990371;28;20080;-75
2023/01/03 02:58:10;;;;;;;2.55;1.00;;;;;;;6.25;100.00;99936.44;4995354;28;20323;-75
2023/01/03 03:00:41;;;;;;;4.25;1.15;;;;;;;6.25;100.00;99944.50;5010393;28;20021;-75
2023/01/03 03:03:14;;;;;;;1.38;1.00;;;;;;;6.22;100.00;99947.47;4994362;28;20029;-74
2023/01/03 03:06:06;;;;;;;1.95;1.20;;;;;;;6.17;100.00;99952.44;5012046;28;20034;-77
2023/01/03 03:08:31;;;;;;;2.70;1.13;;;;;;;5.98;100.00;99936.41;4985972;28;20042;-79
2023/01/03 03:14:13;;;;;;;6.68;1.45;;;;;;;6.03;100.00;99961.00;5013797;28;20041;-75
2023/01/03 03:16:46;;;;;;;1.40;1.13;;;;;;;5.99;100.00;99956.88;4967866;28;20073;-75
2023/01/03 03:25:13;;;;;;;2.72;1.52;;;;;;;5.90;100.00;99961.28;5010551;28;20052;-74
2023/01/03 03:30:29;;;;;;;3.30;1.95;;;;;;;5.78;100.00;99960.56;5012149;28;20037;-74
2023/01/03 03:33:00;;;;;;;4.75;1.77;;;;;;;5.60;100.00;99943.50;5007800;28;20030;-75
2023/01/03 03:35:29;;;;;;;3.55;2.05;;;;;;;5.52;100.00;99929.97;4992384;28;20118;-75
2023/01/03 03:37:56;;;;;;;;;;;;;;;5.58;100.00;99953.53;5013189;28;20026;-75
2023/01/03 03:46:13;;;;;;;2.45;1.58;;;;;;;5.50;100.00;99956.94;5007627;28;20399;-75
2023/01/03 03:51:34;;;;;;;5.82;2.05;;;;;;;5.27;100.00;99962.59;5006371;28;20089;-74
2023/01/03 03:54:04;;;;;;;7.32;1.85;;;;;;;5.17;100.00;99961.75;4994775;28;20550;-74
2023/01/03 03:56:33;;;;;;;3.72;2.17;;;;;;;4.99;100.00;99958.06;4995062;28;20030;-75
2023/01/03 03:59:06;;;;;;;29.67;2.65;;;;;;;4.92;100.00;99971.16;5004439;28;20026;-75
2023/01/03 04:01:34;;;;;;;3.80;2.00;;;;;;;4.79;100.00;99974.13;5012424;28;20025;-75
2023/01/03 04:04:06;;;;;;;4.72;1.55;;;;;;;4.72;100.00;99981.00;5008951;28;20028;-75
2023/01/03 04:06:39;;;;;;;7.00;1.70;;;;;;;4.69;100.00;99989.34;5010360;28;20060;-75
2023/01/03 04:09:04;;;;;;;4.03;1.77;;;;;;;4.65;100.00;99985.22;5007729;28;20048;-75
2023/01/03 04:11:29;;;;;;;5.47;1.98;;;;;;;4.63;100.00;99978.28;5010880;28;20034;-76
2023/01/03 04:13:55;;;;;;;7.15;2.13;;;;;;;4.63;100.00;99979.13;4994590;28;20229;-75
2023/01/03 04:16:20;;;;;;;5.05;1.65;;;;;;;4.68;100.00;99981.41;4994663;28;20076;-75
2023/01/03 04:18:45;;;;;;;4.07;2.05;;;;;;;4.61;100.00;99984.66;5012328;28;20062;-74
2023/01/03 04:21:11;;;;;;;4.38;1.90;;;;;;;4.64;100.00;100001.41;4994900;28;20033;-74
2023/01/03 04:23:36;;;;;;;7.10;2.10;;;;;;;4.58;100.00;100006.38;4992951;28;20034;-77
2023/01/03 04:26:01;;;;;;;3.70;1.60;;;;;;;4.45;100.00;99986.97;4985053;28;20105;-80
2023/01/03 04:28:27;;;;;;;3.55;1.80;;;;;;;4.45;100.00;99988.81;4992411;28;20036;-77
2023/01/03 04:30:52;;;;;;;7.72;1.65;;;;;;;4.45;100.00;99986.97;5011547;28;20388;-78
2023/01/03 04:33:17;;;;;;;4.78;1.83;;;;;;;4.28;100.00;99974.22;4995258;28;20029;-76
2023/01/03 04:35:43;;;;;;;3.00;1.90;;;;;;;4.26;100.00;100002.97;4994672;28;20037;-79
2023/01/03 04:38:11;;;;;;;2.70;1.80;;;;;;;4.25;100.00;100004.81;4997693;28;20137;-82
2023/01/03 04:40:39;;;;;;;3.55;1.92;;;;;;;4.14;100.00;99978.94;4995006;28;20040;-77
2023/01/03 04:45:49;;;;;;;6.75;2.05;;;;;;;4.33;100.00;100004.97;5011041;28;20115;-79
2023/01/03 04:48:15;;;;;;;3.30;1.98;;;;;;;4.27;100.00;100010.00;4995484;28;20479;-77
2023/01/03 04:50:40;;;;;;;3.13;1.83;;;;;;;4.27;100.00;100005.53;5011522;28;20092;-77
2023/01/03 04:53:06;;;;;;;3.45;1.80;;;;;;;4.30;100.00;100017.81;4995622;28;20037;-78
2023/01/03 04:55:31;;;;;;;2.88;1.92;;;;;;;4.08;100.00;100005.41;4994752;28;20044;-79
2023/01/03 04:57:56;;;;;;;3.92;1.60;;;;;;;3.91;100.00;99993.47;4994189;28;20430;-77
2023/01/03 05:00:22;;;;;;;2.90;1.65;;;;;;;3.99;100.00;100023.13;5012538;28;20040;-76
2023/01/03 05:02:47;;;;;;;6.07;2.38;;;;;;;3.88;100.00;100009.81;4995762;28;20467;-76
2023/01/03 05:05:12;;;;;;;3.22;1.88;;;;;;;3.71;100.00;99993.31;5014923;28;20030;-77
2023/01/03 05:07:38;;;;;;;4.45;2.38;;;;;;;3.78;100.00;100014.25;4990546;28;20149;-77
2023/01/03 05:10:03;;;;;;;4.03;2.00;;;;;;;3.81;100.00;100011.31;5023795;28;20476;-77
2023/01/03 05:12:29;;;;;;;4.05;2.08;;;;;;;3.94;100.00;100017.31;4999541;28;20537;-77
2023/01/03 05:14:54;;;;;;;6.90;2.10;;;;;;;3.80;100.00;100006.91;4992188;28;20075;-77
2023/01/03 05:17:20;;;;;;;3.33;1.92;;;;;;;3.61;100.00;99988.88;4999678;28;20030;-78
2023/01/03 05:28:00;;;;;;;4.40;2.40;;;;;;;3.84;100.00;100019.91;5016868;28;20101;-78
2023/01/03 05:30:26;;;;;;;4.82;2.10;;;;;;;3.83;100.00;100017.38;5021873;28;20049;-79
2023/01/03 05:32:51;;;;;;;5.47;2.35;;;;;;;3.80;100.00;100020.28;5012474;28;20073;-80
2023/01/03 05:35:17;;;;;;;6.45;2.42;;;;;;;3.71;100.00;100019.25;5013581;28;20026;-78
2023/01/03 05:37:42;;;;;;;7.80;2.50;;;;;;;3.62;100.00;100004.00;5024646;28;20030;-79
2023/01/03 05:40:08;;;;;;;7.43;2.25;;;;;;;3.69;100.00;100018.53;5026374;28;20036;-75
2023/01/03 05:42:33;;;;;;;2.85;1.90;;;;;;;3.55;100.00;100009.00;5011696;28;20472;-77
2023/01/03 05:44:58;;;;;;;5.07;2.15;;;;;;;3.42;100.00;99987.75;5028044;28;20026;-78
2023/01/03 05:47:24;;;;;;;3.17;1.65;;;;;;;3.54;100.00;100020.69;5025015;28;20130;-83
2023/01/03 05:49:50;;;;;;;2.60;1.60;;;;;;;3.49;100.00;100025.56;5003790;28;20029;-80
2023/01/03 05:52:15;;;;;;;5.55;1.80;;;;;;;3.41;100.00;100028.03;5006352;28;20040;-76
2023/01/03 05:54:40;;;;;;;3.15;1.90;;;;;;;3.46;100.00;100025.81;5010781;28;20030;-78
2023/01/03 05:57:05;;;;;;;3.75;2.10;;;;;;;3.31;100.00;100033.28;5007658;28;20053;-77
2023/01/03 05:59:31;;;;;;;3.78;2.13;;;;;;;3.19;100.00;100016.41;4993049;28;20101;-78
2023/01/03 06:01:56;;;;;;;3.05;1.95;;;;;;;3.08;100.00;100024.47;5001824;28;20038;-77
2023/01/03 06:04:21;;;;;;;4.28;2.08;;;;;;;3.13;100.00;100034.81;5001702;28;20033;-78
2023/01/03 06:06:47;;;;;;;4.32;2.10;;;;;;;3.15;100.00;100041.72;4999000;28;20561;-79
2023/01/03 06:09:12;;;;;;;4.20;2.30;;;;;;;3.17;100.00;100045.13;5003021;28;20120;-79
2023/01/03 06:11:39;;;;;;;3.47;1.98;;;;;;;3.02;100.00;100035.69;5006349;28;20041;-76
2023/01/03 06:14:06;;;;;;;10.15;2.53;;;;;;;3.10;100.00;100038.56;5000357;28;20030;-78
2023/01/03 06:19:16;;;;;;;3.97;1.90;;;;;;;3.22;100.00;100045.59;5009638;28;20065;-72
2023/01/03 06:21:41;;;;;;;3.03;2.05;;;;;;;3.16;100.00;100050.59;5011013;28;20034;-78
2023/01/03 06:24:07;;;;;;;4.40;2.15;;;;;;;3.13;100.00;100045.50;5017342;28;20025;-78
2023/01/03 06:26:32;;;;;;;6.97;2.72;;;;;;;3.25;100.00;100066.75;5005344;28;20057;-78
2023/01/03 06:28:58;;;;;;;9.07;4.10;;;;;;;3.22;100.00;100072.34;4997572;28;20028;-78
2023/01/03 06:31:24;;;;;;;9.85;4.68;;;;;;;3.19;100.00;100077.06;5015610;28;20030;-79
2023/01/03 06:33:49;;;;;;;7.97;4.57;;;;;;;2.94;100.00;100047.00;5016144;28;20044;-73
2023/01/03 06:36:17;;;;;;;9.85;5.20;;;;;;;3.06;100.00;100071.88;5016462;28;20064;-78
2023/01/03 06:38:43;;;;;;;6.57;3.58;;;;;;;3.12;100.00;100055.34;5012878;28;20029;-77
2023/01/03 06:41:09;;;;;;;6.00;2.50;;;;;;;2.99;100.00;100060.84;5009494;28;20037;-76
2023/01/03 06:43:34;;;;;;;3.63;2.15;;;;;;;2.93;100.00;100071.16;5012772;28;20030;-76
2023/01/03 06:54:26;;;;;;;3.78;2.28;;;;;;;3.03;100.00;100077.47;5024918;28;20040;-72
2023/01/03 06:56:52;;;;;;;4.43;2.28;;;;;;;2.84;100.00;100065.59;5018058;28;20172;-78
2023/01/03 06:59:19;;;;;;;4.50;2.17;;;;;;;2.77;100.00;100060.84;5015136;28;20030;-73
2023/01/03 07:01:45;;;;;;;3.78;1.92;;;;;;;2.74;100.00;100077.13;5017035;28;20040;-76
2023/01/03 07:04:11;;;;;;;5.25;2.58;;;;;;;2.74;100.00;100082.47;4996296;28;20029;-74
2023/01/03 07:06:37;;;;;;;6.55;2.15;;;;;;;2.59;100.00;100061.34;5000293;28;20025;-76
2023/01/03 07:09:02;;;;;;;4.28;2.03;;;;;;;2.54;100.00;100079.56;4991890;28;20030;-76
2023/01/03 07:11:28;;;;;;;5.40;2.17;;;;;;;2.56;100.00;100092.78;4993995;28;20041;-75
2023/01/03 07:13:57;;;;;;;6.85;2.63;;;;;;;2.55;100.00;100080.41;4997028;28;20644;-79
2023/01/03 07:16:23;;;;;;;6.57;3.35;;;;;;;2.55;100.00;100093.78;5005154;28;20096;-75
2023/01/03 07:18:50;;;;;;;17.67;6.20;;;;;;;2.47;100.00;100088.19;5002997;28;20037;-75
2023/01/03 07:21:15;;;;;;;13.27;5.93;;;;;;;2.54;100.00;100100.06;5013164;28;20022;-73
2023/01/03 07:23:41;;;;;;;10.27;4.82;;;;;;;2.48;100.00;100095.22;5014766;28;20087;-76
2023/01/03 07:26:06;;;;;;;6.07;3.72;;;;;;;2.58;100.00;100107.72;4998657;28;20077;-71
2023/01/03 07:28:32;;;;;;;9.77;3.83;;;;;;;2.47;100.00;100097.03;5006841;28;20068;-77
2023/01/03 07:41:07;;;;;;;6.40;3.78;;;;;;;2.94;100.00;100115.66;5019574;28;20538;-80
2023/01/03 07:43:38;;;;;;;6.90;3.95;;;;;;;2.99;100.00;100113.47;5014640;28;20756;-76
2023/01/03 07:46:16;;;;;;;6.35;3.80;;;;;;;3.07;100.00;100103.00;4995315;28;20022;-76
2023/01/03 07:48:43;;;;;;;10.15;3.60;;;;;;;3.37;100.00;100118.38;4995701;28;20090;-77
2023/01/03 07:51:10;;;;;;;8.13;3.72;;;;;;;3.54;100.00;100127.72;4996247;28;20033;-76
2023/01/03 07:53:37;;;;;;;5.22;3.17;;;;;;;3.28;100.00;100079.00;5014025;28;20472;-76
2023/01/03 07:56:18;;;;;;;7.18;3.30;;;;;;;3.15;100.00;100017.66;4993498;28;20030;-83
2023/01/03 07:58:44;;;;;;;9.95;3.42;;;;;;;3.56;100.00;100079.41;5019830;28;20018;-83
2023/01/03 08:01:18;;;;;;;8.38;3.20;;;;;;;3.95;100.00;100105.50;5000251;28;20036;-79
2023/01/03 08:03:44;;;;;;;7.30;3.03;;;;;;;4.23;100.00;100129.97;4997923;28;20033;-79
2023/01/03 08:06:21;;;;;;;4.97;2.50;;;;;;;4.51;100.00;100119.59;4994425;28;20109;-82
2023/01/03 08:13:16;;;;;;;5.60;2.60;;;;;;;4.31;100.00;100057.00;4995695;28;20038;-78
2023/01/03 08:14:17;;;;;;;8.25;2.33;;;;;;;4.67;100.00;100086.94;5004992;28;20087;-76
2023/01/03 08:16:42;;;;;;;6.00;2.50;;;;;;;4.70;100.00;100095.56;4990940;28;20109;-74
2023/01/03 08:19:07;;;;;;;2.75;2.05;;;;;;;4.80;100.00;100098.28;5005611;28;20041;-75
2023/01/03 08:21:33;;;;;;;9.95;2.30;;;;;;;4.81;100.00;100097.31;4990741;28;20164;-74
2023/01/03 08:23:58;;;;;;;2.83;2.15;;;;;;;5.13;100.00;100104.34;4994236;28;20034;-75
2023/01/03 08:26:23;;;;;;;6.97;2.53;;;;;;;5.20;100.00;100100.97;4994790;28;20025;-74
2023/01/03 08:28:49;;;;;;;3.10;2.00;;;;;;;5.37;100.00;100091.41;4994178;28;20113;-74
2023/01/03 08:31:18;;;;;;;2.72;1.70;;;;;;;5.43;100.00;100100.75;5011077;28;20044;-74
2023/01/03 08:33:51;;;;;;;5.75;1.80;;;;;;;5.42;100.00;100094.53;4994326;28;20490;-74
2023/01/03 08:36:18;;;;;;;7.78;2.03;;;;;;;5.55;100.00;100107.69;4993416;28;20077;-75
2023/01/03 08:38:47;;;;;;;3.83;2.25;;;;;;;5.78;100.00;100119.00;5011385;28;20022;-75
2023/01/03 08:41:16;;;;;;;8.38;2.53;;;;;;;5.79;100.00;100106.44;5010803;28;20042;-75
2023/01/03 08:43:43;;;;;;;3.22;2.00;;;;;;;5.96;100.00;100112.97;4994189;28;20014;-74
2023/01/03 08:46:10;;;;;;;3.85;2.10;;;;;;;5.99;100.00;100118.06;4997840;28;20037;-75
2023/01/03 08:48:36;;;;;;;6.60;3.35;;;;;;;6.09;100.00;100116.22;5014458;28;20030;-75
2023/01/03 08:51:02;;;;;;;5.85;2.45;;;;;;;6.27;100.00;100125.25;4992520;28;20045;-75
2023/01/03 08:53:27;;;;;;;3.30;1.67;;;;;;;6.23;100.00;100115.78;4994358;28;20483;-75
2023/01/03 08:55:53;;;;;;;6.85;4.13;;;;;;;6.36;100.00;100116.31;4994642;28;20033;-75
2023/01/03 08:58:19;;;;;;;10.45;4.30;;;;;;;6.34;100.00;100110.28;5012227;28;20026;-75
2023/01/03 09:00:44;;;;;;;5.43;3.03;;;;;;;6.66;100.00;100101.00;4990415;28;20443;-75
2023/01/03 09:03:09;;;;;;;9.48;3.95;;;;;;;6.81;100.00;100090.59;5010671;28;20421;-76
2023/01/03 09:05:35;;;;;;;9.25;3.20;;;;;;;7.08;100.00;100108.63;4991596;28;20037;-76
2023/01/03 09:08:00;;;;;;;11.45;6.40;;;;;;;7.07;100.00;100136.50;5012124;28;20104;-75
2023/01/03 09:10:26;;;;;;;9.80;3.90;;;;;;;7.12;100.00;100101.94;5011833;28;20038;-75
2023/01/03 09:12:51;;;;;;;4.00;2.30;;;;;;;7.28;100.00;100113.88;5012357;28;20122;-73
2023/01/03 09:15:17;;;;;;;5.50;3.10;;;;;;;7.33;100.00;100092.75;4989948;28;20089;-75
2023/01/03 09:17:43;;;;;;;9.60;3.30;;;;;;;7.47;100.00;100124.56;5010130;28;20026;-73
2023/01/03 09:20:11;;;;;;;9.15;2.97;;;;;;;7.25;100.00;100121.25;5009924;28;20072;-74
2023/01/03 09:22:36;;;;;;;3.58;2.20;;;;;;;7.34;100.00;100110.63;5008226;28;20025;-73
2023/01/03 09:25:02;;;;;;;5.20;2.78;;;;;;;7.54;100.00;100131.03;5011430;28;20580;-74
2023/01/03 09:27:27;;;;;;;6.03;3.22;;;;;;;7.52;100.00;100119.56;5011834;28;20017;-73
2023/01/03 09:29:52;;;;;;;12.25;3.78;;;;;;;7.61;100.00;100124.03;5011208;28;20472;-72
2023/01/03 09:32:18;;;;;;;5.35;3.00;;;;;;;7.85;100.00;100120.75;4989896;28;20037;-73
2023/01/03 09:34:43;;;;;;;4.35;2.35;;;;;;;7.77;100.00;100133.28;5009910;28;20087;-73
2023/01/03 09:37:08;;;;;;;3.90;2.28;;;;;;;7.97;100.00;100115.16;5011061;28;20029;-73
2023/01/03 09:39:34;;;;;;;5.05;2.10;;;;;;;8.23;100.00;100121.44;5010673;28;20026;-73
2023/01/03 09:44:45;;;;;;;3.33;2.13;;;;;;;8.52;100.00;100109.56;5011407;28;20507;-74
2023/01/03 09:47:18;;;;;;;3.17;2.22;;;;;;;9.03;100.00;100109.69;4987763;28;20025;-74
2023/01/03 09:49:44;;;;;;;24.67;11.68;;;;;;;9.74;100.00;100113.81;5010098;28;20076;-74
2023/01/03 10:03:43;;;;;;;4.05;2.50;;;;;;;9.63;100.00;100123.06;5015162;28;20124;-74
2023/01/03 10:06:23;;;;;;;10.25;4.30;;;;;;;8.90;100.00;100129.00;5014784;28;20502;-73
2023/01/03 10:09:16;;;;;;;5.75;2.85;;;;;;;8.92;100.00;100121.59;5012940;28;20021;-73
2023/01/03 10:12:03;;;;;;;7.43;2.90;;;;;;;9.26;100.00;100145.91;5007744;28;20037;-73
2023/01/03 10:15:06;;;;;;;7.95;5.03;;;;;;;9.44;100.00;100135.84;4992265;28;20030;-73
2023/01/03 10:17:40;;;;;;;11.48;3.42;;;;;;;9.40;100.00;100145.28;5012717;28;20026;-75
2023/01/03 10:20:17;;;;;;;13.38;4.18;;;;;;;9.51;100.00;100146.84;4995544;28;20013;-74
2023/01/03 10:22:45;;;;;;;5.15;3.50;;;;;;;10.25;100.00;100128.06;5014597;28;20025;-73
2023/01/03 10:25:14;;;;;;;3.47;2.08;;;;;;;10.71;100.00;100128.41;5477002;22;20027;-61
2023/01/03 10:27:56;;;;;;;5.93;2.17;;;;;;;11.19;100.00;100138.28;4996873;28;20501;-61
2023/01/03 10:30:35;;;;;;;3.33;2.20;;;;;;;11.29;100.00;100137.22;4987850;28;20034;-61
2023/01/03 10:33:18;;;;;;;4.72;2.63;;;;;;;11.11;100.00;100135.59;4988872;28;20033;-61
2023/01/03 10:35:44;;;;;;;5.22;2.22;;;;;;;13.97;100.00;100123.25;4976431;28;20466;-63
2023/01/03 10:38:09;;;;;;;6.10;2.40;;;;;;;15.99;97.44;100116.00;4978698;28;20092;-62
2023/01/03 10:40:46;;;;;;;3.22;2.25;;;;;;;16.82;85.74;100114.81;4976281;28;20026;-62
2023/01/03 10:43:19;;;;;;;2.85;1.90;;;;;;;18.88;69.83;100107.47;4970983;28;20027;-69
2023/01/03 10:46:05;;;;;;;7.22;2.17;;;;;;;19.64;61.81;100104.28;4974057;28;20050;-68
2023/01/03 10:48:38;;;;;;;3.28;1.88;;;;;;;20.10;60.39;100107.50;4969548;28;20505;-68
2023/01/03 10:51:19;;;;;;;5.80;2.20;;;;;;;20.49;58.51;100110.72;4989035;28;20026;-69
2023/01/03 10:53:45;;;;;;;4.80;2.17;;;;;;;20.70;55.94;100107.41;4974256;28;20116;-68
2023/01/03 10:56:15;;;;;;;6.07;2.50;;;;;;;21.06;53.35;100101.91;4991374;28;20132;-68
2023/01/03 10:58:40;;;;;;;5.97;2.20;;;;;;;21.42;51.00;100104.38;4968281;28;20029;-69
2023/01/03 11:01:18;;;;;;;3.90;2.15;;;;;;;22.78;48.67;100093.66;4989460;28;20038;-69
2023/01/03 11:04:05;;;;;;;3.60;2.10;;;;;;;22.23;48.89;100103.50;5000395;23;20036;-68
2023/01/03 11:06:32;;;;;;;2.70;1.48;;;;;;;23.61;47.48;100087.13;5031458;28;20765;-69
2023/01/03 11:09:01;;;;;;;5.78;1.77;;;;;;;23.97;48.01;100086.69;5026096;28;20032;-69
2023/01/03 11:11:35;;;;;;;4.00;2.15;;;;;;;24.13;45.64;100083.03;5026779;28;20028;-69
2023/01/03 11:14:26;;;;;;;5.13;1.92;;;;;;;21.80;48.95;100091.13;5028521;28;20347;-69
2023/01/03 11:17:04;;;;;;;3.58;1.58;;;;;;;23.49;47.74;100088.34;5031702;28;20170;-69
2023/01/03 11:19:31;;;;;;;5.93;1.70;;;;;;;23.81;47.12;100089.28;5026314;28;20029;-69
2023/01/03 11:22:21;;;;;;;5.78;1.60;;;;;;;24.09;46.61;100083.81;5023920;28;20029;-68
2023/01/03 11:25:14;;;;;;;2.60;1.52;;;;;;;23.20;45.01;100088.53;5036926;28;20035;-68
2023/01/03 11:28:03;;;;;;;2.60;1.40;;;;;;;24.11;44.61;100090.75;5024792;28;20029;-69
2023/01/03 11:30:51;;;;;;;4.63;1.40;;;;;;;23.79;44.66;100079.63;5034326;28;20361;-70
2023/01/03 11:33:58;;;;;;;4.13;1.33;;;;;;;23.02;45.94;100083.28;5037115;28;20424;-69
2023/01/03 11:36:38;;;;;;;2.83;1.45;;;;;;;23.14;47.16;100072.97;5045771;28;20171;-69
2023/01/03 11:39:29;;;;;;;3.05;1.40;;;;;;;24.59;43.91;100074.31;5044606;28;20029;-69
2023/01/03 11:42:14;;;;;;;1.27;1.10;;;;;;;23.49;45.53;100069.84;5046636;28;20071;-70
2023/01/03 11:44:45;;;;;;;3.75;1.30;;;;;;;25.17;42.15;100063.38;5022016;28;20025;-70
2023/01/03 11:47:24;;;;;;;1.90;0.85;;;;;;;24.80;42.24;100064.22;5026400;28;20033;-70
2023/01/03 11:49:52;;;;;;;;;;;;;;;24.64;42.40;100061.34;5021675;28;20477;-69
2023/01/03 11:52:28;;;;;;;3.38;1.10;;;;;;;23.10;44.41;100063.53;5036517;28;20399;-62
2023/01/03 11:55:15;;;;;;;1.48;0.80;;;;;;;23.21;44.54;100062.56;5042346;28;20232;-69
2023/01/03 11:57:50;;;;;;;1.75;0.85;;;;;;;24.71;42.32;100050.88;5048934;28;20033;-62
2023/01/03 12:00:31;;;;;;;1.92;0.80;;;;;;;26.12;40.60;100046.50;5033906;28;20064;-69
2023/01/03 12:03:05;;;;;;;1.90;0.60;;;;;;;27.75;38.10;100045.34;5028170;28;20033;-63
2023/01/03 12:05:37;;;;;;;1.85;0.70;;;;;;;25.96;39.19;100048.41;5028421;28;20444;-69
2023/01/03 12:08:20;;;;;;;3.20;1.15;;;;;;;25.36;40.64;100047.94;5032490;28;20036;-62
2023/01/03 12:11:22;;;;;;;2.78;1.02;;;;;;;25.25;39.57;100035.16;5046814;28;20021;-62
2023/01/03 12:14:00;;;;;;;1.92;0.85;;;;;;;25.21;39.02;100042.34;5030390;28;20028;-68
2023/01/03 12:16:35;;;;;;;1.47;0.70;;;;;;;24.92;40.09;100038.00;5029666;28;20028;-62
2023/01/03 12:19:14;;;;;;;2.85;0.80;;;;;;;24.16;41.11;100042.94;5022693;28;20086;-62
2023/01/03 12:21:47;;;;;;;1.83;0.85;;;;;;;24.02;41.96;100042.53;5032013;28;20028;-62
2023/01/03 12:24:16;;;;;;;1.88;0.80;;;;;;;22.78;43.81;100044.84;5035101;28;20071;-68
2023/01/03 12:26:49;;;;;;;3.72;0.85;;;;;;;23.91;42.57;100038.00;5020397;28;20033;-61
2023/01/03 12:29:40;;;;;;;2.15;0.90;;;;;;;25.82;40.03;100039.78;5035773;28;20906;-62
2023/01/03 12:32:13;;;;;;;2.10;0.88;;;;;;;24.31;39.73;100034.75;5009216;28;20412;-68
2023/01/03 12:35:20;;;;;;;1.73;0.80;;;;;;;24.66;40.08;100023.16;5026634;28;20453;-68
2023/01/03 12:37:49;;;;;;;2.25;0.80;;;;;;;23.67;41.49;100032.75;5008226;28;20045;-68
2023/01/03 12:40:25;;;;;;;2.25;0.60;;;;;;;22.81;42.03;100024.19;5044220;28;20036;-69
2023/01/03 12:42:59;;;;;;;3.28;0.90;;;;;;;23.18;41.69;100032.72;5015049;28;20075;-68
2023/01/03 12:45:37;;;;;;;2.58;0.90;;;;;;;23.65;41.97;100023.88;5047342;28;20123;-68
2023/01/03 12:48:12;;;;;;;1.88;0.45;;;;;;;24.32;40.35;100017.09;5052016;28;20029;-68
2023/01/03 12:50:47;;;;;;;2.03;0.50;;;;;;;24.24;40.44;100012.88;5051586;28;20037;-69
2023/01/03 12:53:26;;;;;;;2.05;0.80;;;;;;;24.16;39.39;100021.66;5034154;28;20032;-69
2023/01/03 12:56:13;;;;;;;1.85;0.40;;;;;;;23.36;39.86;100015.81;5039705;28;20071;-69
2023/01/03 12:58:41;;;;;;;2.08;0.52;;;;;;;22.49;42.39;100017.38;5034298;28;20040;-69
2023/01/03 13:01:25;;;;;;;0.63;0.40;;;;;;;23.16;40.85;100012.81;5047713;28;20056;-68